createdAt,value
2022-12-28T00:02:12.388Z,1.00
2022-12-28T00:12:14.004Z,1.00
2022-12-28T00:22:15.556Z,1.10
2022-12-28T00:32:17.032Z,1.15
2022-12-28T00:42:20.648Z,1.23
2022-12-28T00:52:22.112Z,1.10
2022-12-28T01:02:23.654Z,1.15
2022-12-28T01:12:25.125Z,1.00
2022-12-28T01:22:27.797Z,0.80
2022-12-28T01:32:29.530Z,1.00
2022-12-28T01:42:31.042Z,0.90
2022-12-28T01:52:38.277Z,1.37
2022-12-28T02:02:43.411Z,0.90
2022-12-28T02:12:46.888Z,1.10
2022-12-28T02:23:05.776Z,0.90
2022-12-28T02:33:30.983Z,1.10
2022-12-28T02:43:34.602Z,0.80
2022-12-28T02:53:45.506Z,0.80
2022-12-28T03:04:13.937Z,0.80
2022-12-28T03:14:21.616Z,0.90
2022-12-28T03:24:42.235Z,0.80
2022-12-28T03:34:45.403Z,0.70
2022-12-28T03:44:58.701Z,1.00
2022-12-28T03:55:00.823Z,0.90
2022-12-28T04:05:04.644Z,0.88
2022-12-28T04:15:06.891Z,0.63
2022-12-28T04:25:09.419Z,0.60
2022-12-28T04:35:11.013Z,0.73
2022-12-28T04:45:22.371Z,0.60
2022-12-28T04:55:32.852Z,0.50
2022-12-28T05:05:34.998Z,0.55
2022-12-28T05:15:37.998Z,0.30
2022-12-28T05:25:39.443Z,0.50
2022-12-28T05:35:40.920Z,0.60
2022-12-28T05:45:42.413Z,0.52
2022-12-28T05:55:43.896Z,0.38
2022-12-28T06:05:45.389Z,0.30
2022-12-28T06:15:46.847Z,0.45
2022-12-28T06:25:48.338Z,0.47
2022-12-28T06:35:49.844Z,0.32
2022-12-28T06:45:56.475Z,0.57
2022-12-28T06:56:00.112Z,0.40
2022-12-28T07:06:02.481Z,0.40
2022-12-28T07:16:10.175Z,0.28
2022-12-28T07:26:17.478Z,0.40
2022-12-28T07:36:20.213Z,0.30
2022-12-28T07:46:24.545Z,0.30
2022-12-28T07:56:27.665Z,0.35
2022-12-28T08:06:30.142Z,0.40
2022-12-28T08:16:41.788Z,0.30
2022-12-28T08:26:44.244Z,0.30
2022-12-28T08:36:45.988Z,0.30
2022-12-28T08:46:47.708Z,0.28
2022-12-28T08:56:49.887Z,0.28
2022-12-28T09:06:51.452Z,0.30
2022-12-28T09:16:53.612Z,0.30
2022-12-28T09:26:55.386Z,0.40
2022-12-28T09:36:56.926Z,0.40
2022-12-28T09:47:12.372Z,0.47
2022-12-28T09:57:15.788Z,0.50
2022-12-28T10:07:17.555Z,0.40
2022-12-28T10:17:25.301Z,0.50
2022-12-28T10:27:30.997Z,0.50
2022-12-28T10:37:35.102Z,0.40
2022-12-28T10:47:41.783Z,0.50
2022-12-28T10:58:10.558Z,0.35
2022-12-28T11:08:06.494Z,0.40
2022-12-28T11:18:16.551Z,0.40
2022-12-28T11:28:22.779Z,0.40
2022-12-28T11:38:39.560Z,0.30
2022-12-28T11:48:40.988Z,0.65
2022-12-28T11:58:42.581Z,0.30
2022-12-28T12:08:48.976Z,0.28
2022-12-28T12:18:52.631Z,0.30
2022-12-28T12:28:56.419Z,0.22
2022-12-28T12:39:10.958Z,0.20
2022-12-28T13:09:52.146Z,0.20
2022-12-28T13:20:20.068Z,0.45
2022-12-28T13:30:22.512Z,0.28
2022-12-28T13:40:24.083Z,0.20
2022-12-28T13:50:28.348Z,0.30
2022-12-28T14:00:30.738Z,0.13
2022-12-28T14:10:32.291Z,0.20
2022-12-28T14:20:46.892Z,0.10
2022-12-28T14:30:54.116Z,0.30
2022-12-28T14:40:58.246Z,0.20
2022-12-28T14:51:17.570Z,0.30
2022-12-28T15:01:42.840Z,0.40
2022-12-28T15:11:46.018Z,0.22
2022-12-28T15:21:47.479Z,0.20
2022-12-28T15:31:49.043Z,0.30
2022-12-28T15:41:50.622Z,0.30
2022-12-28T15:51:52.236Z,0.73
2022-12-28T16:01:53.787Z,0.40
2022-12-28T16:11:55.632Z,0.57
2022-12-28T16:21:57.213Z,0.30
2022-12-28T16:32:00.286Z,0.22
2022-12-28T16:42:01.833Z,0.40
2022-12-28T16:52:03.484Z,0.50
2022-12-28T17:02:05.512Z,0.52
2022-12-28T17:12:07.181Z,0.43
2022-12-28T17:22:08.677Z,0.52
2022-12-28T17:32:10.320Z,0.60
2022-12-28T17:42:11.915Z,0.70
2022-12-28T17:52:17.307Z,0.80
2022-12-28T18:12:20.407Z,0.80
2022-12-28T18:22:23.034Z,0.90
2022-12-28T18:32:24.543Z,0.90
2022-12-28T18:42:26.255Z,0.70
2022-12-28T18:52:28.066Z,0.70
2022-12-28T19:02:29.636Z,0.85
2022-12-28T19:12:31.472Z,0.70
2022-12-28T19:22:33.052Z,0.70
2022-12-28T19:32:34.550Z,0.77
2022-12-28T19:42:36.075Z,0.70
2022-12-28T19:52:37.558Z,0.85
2022-12-28T20:02:39.227Z,1.00
2022-12-28T20:12:40.719Z,0.70
2022-12-28T20:22:42.333Z,0.60
2022-12-28T20:32:45.115Z,0.40
2022-12-28T20:43:05.470Z,0.70
2022-12-28T20:53:06.995Z,0.50
2022-12-28T21:03:08.449Z,0.57
2022-12-28T21:13:09.936Z,0.50
2022-12-28T21:23:11.454Z,0.50
2022-12-28T21:33:12.904Z,0.60
2022-12-28T21:43:14.358Z,0.55
2022-12-28T21:53:15.853Z,0.50
2022-12-28T22:03:36.308Z,0.50
2022-12-28T22:13:37.951Z,0.63
2022-12-28T22:23:39.425Z,0.60
2022-12-28T22:33:40.906Z,0.50
2022-12-28T22:43:42.465Z,0.50
2022-12-28T22:53:44.438Z,0.50
2022-12-28T23:03:47.391Z,0.40
2022-12-28T23:13:48.833Z,0.50
2022-12-28T23:24:09.177Z,0.40
2022-12-28T23:34:10.686Z,0.50
2022-12-28T23:44:12.165Z,0.47
2022-12-28T23:54:15.528Z,0.43
